N855JD KDPA-KOMA
Flight info
| Callsign | N855JD |
|---|---|
| Flight time | 2h 6m |
| Altitude | 8000 |
| Route | OLINN OREOS OBENE DSM LANTK2 |
| Aircraft | C404/L-SDFR/C |
Departure
| Time | 2026-05-08 02:48 |
|---|---|
| Airport | Dupage Airport (KDPA) |
Arrival
| Time | 2026-05-08 04:54 |
|---|---|
| Airport | Eppley Airfield (KOMA) |
| Time | Latitude | Longitude | Altitude | Speed | Heading |
|---|---|---|---|---|---|
| 2026-05-08 02:42 | 41.90614 | -88.25315 | 758 ft | 0 kts | 309° |
| 2026-05-08 02:43 | 41.90617 | -88.25322 | 758 ft | 3 kts | 309° |
| 2026-05-08 02:43 | 41.90638 | -88.25355 | 757 ft | 6 kts | 309° |
| 2026-05-08 02:43 | 41.90654 | -88.25370 | 758 ft | 1 kts | 36° |
| 2026-05-08 02:44 | 41.90681 | -88.25330 | 758 ft | 11 kts | 83° |
| 2026-05-08 02:44 | 41.90676 | -88.25157 | 758 ft | 9 kts | 115° |
| 2026-05-08 02:44 | 41.90618 | -88.25122 | 758 ft | 9 kts | 162° |
| 2026-05-08 02:44 | 41.90603 | -88.25106 | 757 ft | 1 kts | 103° |
| 2026-05-08 02:45 | 41.90603 | -88.25103 | 757 ft | 0 kts | 103° |
| 2026-05-08 02:46 | 41.90585 | -88.24987 | 758 ft | 6 kts | 122° |
| 2026-05-08 02:46 | 41.90587 | -88.24963 | 758 ft | 0 kts | 20° |
| 2026-05-08 02:47 | 41.90599 | -88.24958 | 757 ft | 14 kts | 15° |
| 2026-05-08 02:47 | 41.90888 | -88.24862 | 757 ft | 70 kts | 14° |
| 2026-05-08 02:47 | 41.91497 | -88.24666 | 812 ft | 103 kts | 11° |
| 2026-05-08 02:47 | 41.92225 | -88.24546 | 1027 ft | 109 kts | 349° |
| 2026-05-08 02:48 | 41.92840 | -88.25032 | 1379 ft | 102 kts | 300° |
| 2026-05-08 02:48 | 41.93107 | -88.25964 | 1697 ft | 110 kts | 277° |
| 2026-05-08 02:48 | 41.93182 | -88.26961 | 2082 ft | 112 kts | 273° |
| 2026-05-08 02:48 | 41.93251 | -88.28028 | 2476 ft | 112 kts | 274° |
| 2026-05-08 02:49 | 41.93283 | -88.29077 | 2857 ft | 115 kts | 270° |
| 2026-05-08 02:49 | 41.93084 | -88.30058 | 3352 ft | 113 kts | 246° |
| 2026-05-08 02:49 | 41.92649 | -88.31057 | 3519 ft | 130 kts | 246° |
| 2026-05-08 02:49 | 41.92201 | -88.32127 | 3864 ft | 133 kts | 247° |
| 2026-05-08 02:50 | 41.91751 | -88.33234 | 4180 ft | 137 kts | 246° |
| 2026-05-08 02:50 | 41.91270 | -88.34344 | 4547 ft | 138 kts | 245° |
| 2026-05-08 02:50 | 41.90771 | -88.35445 | 4912 ft | 138 kts | 244° |
| 2026-05-08 02:50 | 41.90256 | -88.36537 | 5281 ft | 139 kts | 244° |
| 2026-05-08 02:51 | 41.89724 | -88.37622 | 5658 ft | 139 kts | 243° |
| 2026-05-08 02:51 | 41.89459 | -88.38801 | 5997 ft | 133 kts | 279° |
| 2026-05-08 02:51 | 41.89917 | -88.39861 | 6330 ft | 136 kts | 312° |
| 2026-05-08 02:51 | 41.90629 | -88.40704 | 6680 ft | 137 kts | 315° |
| 2026-05-08 02:52 | 41.91356 | -88.41522 | 7034 ft | 136 kts | 315° |
| 2026-05-08 02:52 | 41.92076 | -88.42342 | 7394 ft | 135 kts | 314° |
| 2026-05-08 02:52 | 41.92773 | -88.43158 | 7763 ft | 134 kts | 313° |
| 2026-05-08 02:52 | 41.93464 | -88.43992 | 8137 ft | 133 kts | 311° |
| 2026-05-08 02:53 | 41.94139 | -88.44830 | 8531 ft | 132 kts | 310° |
| 2026-05-08 02:53 | 41.94799 | -88.45675 | 8928 ft | 130 kts | 309° |
| 2026-05-08 02:53 | 41.95121 | -88.46734 | 9303 ft | 127 kts | 272° |
| 2026-05-08 02:53 | 41.95050 | -88.47910 | 9718 ft | 125 kts | 270° |
| 2026-05-08 02:54 | 41.94985 | -88.49071 | 10100 ft | 124 kts | 270° |
| 2026-05-08 02:54 | 41.94917 | -88.50258 | 10231 ft | 138 kts | 270° |
| 2026-05-08 02:54 | 41.94848 | -88.51587 | 10206 ft | 148 kts | 270° |
| 2026-05-08 02:54 | 41.94778 | -88.52986 | 10216 ft | 146 kts | 270° |
| 2026-05-08 02:55 | 41.94709 | -88.54320 | 10193 ft | 146 kts | 270° |
| 2026-05-08 02:55 | 41.94570 | -88.57284 | 10202 ft | 168 kts | 270° |
| 2026-05-08 02:55 | 41.94502 | -88.58869 | 10206 ft | 172 kts | 270° |
| 2026-05-08 02:56 | 41.94412 | -88.60487 | 10206 ft | 175 kts | 268° |
| 2026-05-08 02:56 | 41.94251 | -88.62122 | 10203 ft | 177 kts | 266° |
| 2026-05-08 02:56 | 41.94079 | -88.63762 | 10204 ft | 178 kts | 266° |
| 2026-05-08 02:56 | 41.93906 | -88.65411 | 10206 ft | 178 kts | 266° |
| 2026-05-08 02:57 | 41.93731 | -88.67062 | 10204 ft | 179 kts | 266° |
| 2026-05-08 02:57 | 41.93552 | -88.68715 | 10204 ft | 179 kts | 266° |
| 2026-05-08 02:57 | 41.93372 | -88.70367 | 10205 ft | 179 kts | 266° |
| 2026-05-08 02:57 | 41.93193 | -88.72020 | 10205 ft | 179 kts | 266° |
| 2026-05-08 02:58 | 41.93011 | -88.73674 | 10202 ft | 179 kts | 266° |
| 2026-05-08 02:58 | 41.92812 | -88.75306 | 10202 ft | 179 kts | 265° |
| 2026-05-08 02:58 | 41.92660 | -88.76963 | 10205 ft | 178 kts | 269° |
| 2026-05-08 02:58 | 41.92573 | -88.78534 | 10194 ft | 170 kts | 269° |
| 2026-05-08 02:59 | 41.92485 | -88.80145 | 10196 ft | 175 kts | 269° |
| 2026-05-08 02:59 | 41.92394 | -88.81790 | 10199 ft | 178 kts | 269° |
| 2026-05-08 02:59 | 41.92303 | -88.83453 | 10202 ft | 179 kts | 269° |
| 2026-05-08 02:59 | 41.92211 | -88.85127 | 10203 ft | 180 kts | 269° |
| 2026-05-08 03:00 | 41.92116 | -88.86806 | 10192 ft | 180 kts | 269° |
| 2026-05-08 03:00 | 41.92019 | -88.88482 | 10194 ft | 180 kts | 269° |
| 2026-05-08 03:00 | 41.91924 | -88.90159 | 10194 ft | 180 kts | 267° |
| 2026-05-08 03:00 | 41.91825 | -88.91832 | 10193 ft | 180 kts | 269° |
| 2026-05-08 03:01 | 41.91732 | -88.93504 | 10195 ft | 180 kts | 269° |
| 2026-05-08 03:01 | 41.91637 | -88.95182 | 10195 ft | 180 kts | 269° |
| 2026-05-08 03:01 | 41.91539 | -88.96855 | 10201 ft | 180 kts | 269° |
| 2026-05-08 03:01 | 41.91442 | -88.98537 | 10201 ft | 180 kts | 269° |
| 2026-05-08 03:02 | 41.91345 | -89.00214 | 10203 ft | 181 kts | 269° |
| 2026-05-08 03:02 | 41.91247 | -89.01895 | 10203 ft | 181 kts | 269° |
| 2026-05-08 03:02 | 41.91150 | -89.03575 | 10202 ft | 181 kts | 269° |
| 2026-05-08 03:02 | 41.91051 | -89.05256 | 10202 ft | 180 kts | 269° |
| 2026-05-08 03:03 | 41.90953 | -89.06935 | 10207 ft | 181 kts | 269° |
| 2026-05-08 03:03 | 41.90888 | -89.08046 | 10206 ft | 181 kts | 269° |
| 2026-05-08 03:03 | 41.90791 | -89.09726 | 10207 ft | 181 kts | 269° |
| 2026-05-08 03:03 | 41.90692 | -89.11406 | 10206 ft | 180 kts | 269° |
| 2026-05-08 03:04 | 41.90593 | -89.13085 | 10203 ft | 180 kts | 269° |
| 2026-05-08 03:04 | 41.90461 | -89.15309 | 10204 ft | 180 kts | 269° |
| 2026-05-08 03:04 | 41.90394 | -89.16439 | 10203 ft | 180 kts | 269° |
| 2026-05-08 03:04 | 41.90294 | -89.18118 | 10203 ft | 180 kts | 269° |
| 2026-05-08 03:05 | 41.90192 | -89.19790 | 10206 ft | 180 kts | 269° |
| 2026-05-08 03:05 | 41.90092 | -89.21468 | 10206 ft | 180 kts | 269° |
| 2026-05-08 03:05 | 41.89992 | -89.23148 | 10206 ft | 181 kts | 269° |
| 2026-05-08 03:05 | 41.89890 | -89.24805 | 10198 ft | 180 kts | 268° |
| 2026-05-08 03:06 | 41.89791 | -89.26476 | 10197 ft | 179 kts | 268° |
| 2026-05-08 03:06 | 41.89691 | -89.28145 | 10198 ft | 180 kts | 268° |
| 2026-05-08 03:06 | 41.89590 | -89.29816 | 10197 ft | 180 kts | 268° |
| 2026-05-08 03:06 | 41.89488 | -89.31487 | 10199 ft | 180 kts | 268° |
| 2026-05-08 03:07 | 41.89386 | -89.33160 | 10201 ft | 180 kts | 268° |
| 2026-05-08 03:07 | 41.89285 | -89.34834 | 10201 ft | 180 kts | 268° |
| 2026-05-08 03:07 | 41.89182 | -89.36508 | 10200 ft | 180 kts | 268° |
| 2026-05-08 03:07 | 41.89079 | -89.38183 | 10201 ft | 180 kts | 268° |
| 2026-05-08 03:08 | 41.88977 | -89.39859 | 10201 ft | 180 kts | 268° |
| 2026-05-08 03:08 | 41.88873 | -89.41534 | 10196 ft | 180 kts | 268° |
| 2026-05-08 03:08 | 41.88771 | -89.43209 | 10196 ft | 180 kts | 268° |
| 2026-05-08 03:08 | 41.88669 | -89.44880 | 10196 ft | 180 kts | 268° |
| 2026-05-08 03:09 | 41.88564 | -89.46559 | 10191 ft | 180 kts | 268° |
| 2026-05-08 03:09 | 41.88458 | -89.48237 | 10186 ft | 180 kts | 268° |
| 2026-05-08 03:09 | 41.88354 | -89.49911 | 10186 ft | 180 kts | 268° |
| 2026-05-08 03:09 | 41.88250 | -89.51585 | 10188 ft | 180 kts | 268° |
| 2026-05-08 03:10 | 41.88144 | -89.53254 | 10190 ft | 179 kts | 268° |
| 2026-05-08 03:10 | 41.88040 | -89.54928 | 10190 ft | 180 kts | 268° |
| 2026-05-08 03:10 | 41.87935 | -89.56603 | 10189 ft | 180 kts | 268° |
| 2026-05-08 03:10 | 41.87830 | -89.58278 | 10190 ft | 180 kts | 268° |
| 2026-05-08 03:11 | 41.87723 | -89.59952 | 10189 ft | 180 kts | 268° |
| 2026-05-08 03:11 | 41.87617 | -89.61628 | 10190 ft | 180 kts | 268° |
| 2026-05-08 03:11 | 41.87513 | -89.63273 | 10189 ft | 180 kts | 268° |
| 2026-05-08 03:11 | 41.87407 | -89.64945 | 10190 ft | 180 kts | 268° |
| 2026-05-08 03:12 | 41.87300 | -89.66618 | 10189 ft | 180 kts | 268° |
| 2026-05-08 03:12 | 41.87193 | -89.68291 | 10189 ft | 180 kts | 268° |
| 2026-05-08 03:12 | 41.87086 | -89.69966 | 10189 ft | 180 kts | 268° |
| 2026-05-08 03:12 | 41.86977 | -89.71639 | 10189 ft | 180 kts | 268° |
| 2026-05-08 03:13 | 41.86871 | -89.73309 | 10190 ft | 180 kts | 268° |
| 2026-05-08 03:13 | 41.86764 | -89.74979 | 10190 ft | 180 kts | 268° |
| 2026-05-08 03:13 | 41.86655 | -89.76650 | 10190 ft | 180 kts | 268° |
| 2026-05-08 03:13 | 41.86547 | -89.78322 | 10190 ft | 180 kts | 268° |
| 2026-05-08 03:14 | 41.86439 | -89.79991 | 10190 ft | 180 kts | 268° |
| 2026-05-08 03:14 | 41.86330 | -89.81661 | 10190 ft | 180 kts | 268° |
| 2026-05-08 03:14 | 41.86221 | -89.83330 | 10191 ft | 180 kts | 268° |
| 2026-05-08 03:14 | 41.86112 | -89.85002 | 10191 ft | 180 kts | 268° |
| 2026-05-08 03:15 | 41.86001 | -89.86674 | 10191 ft | 180 kts | 268° |
| 2026-05-08 03:15 | 41.85893 | -89.88345 | 10199 ft | 180 kts | 268° |
| 2026-05-08 03:15 | 41.85792 | -89.90015 | 10195 ft | 180 kts | 270° |
| 2026-05-08 03:15 | 41.85805 | -89.91708 | 9994 ft | 181 kts | 270° |
| 2026-05-08 03:16 | 41.85351 | -89.93222 | 10124 ft | 180 kts | 241° |
| 2026-05-08 03:16 | 41.84367 | -89.94359 | 9981 ft | 194 kts | 225° |
| 2026-05-08 03:16 | 41.83214 | -89.95374 | 9636 ft | 196 kts | 223° |
| 2026-05-08 03:16 | 41.82125 | -89.96246 | 9597 ft | 181 kts | 220° |
| 2026-05-08 03:17 | 41.80936 | -89.97105 | 8923 ft | 205 kts | 216° |
| 2026-05-08 03:17 | 41.79622 | -89.97974 | 8212 ft | 208 kts | 213° |
| 2026-05-08 03:17 | 41.78342 | -89.98497 | 7469 ft | 186 kts | 203° |
| 2026-05-08 03:17 | 41.77264 | -89.99115 | 7127 ft | 157 kts | 220° |
| 2026-05-08 03:18 | 41.76379 | -90.00120 | 6780 ft | 181 kts | 230° |
| 2026-05-08 03:18 | 41.75455 | -90.01458 | 6574 ft | 207 kts | 233° |
| 2026-05-08 03:18 | 41.74567 | -90.03033 | 6460 ft | 213 kts | 240° |
| 2026-05-08 03:18 | 41.73903 | -90.04828 | 6271 ft | 220 kts | 251° |
| 2026-05-08 03:19 | 41.73511 | -90.06849 | 5887 ft | 228 kts | 261° |
| 2026-05-08 03:19 | 41.73254 | -90.08886 | 5728 ft | 213 kts | 265° |
| 2026-05-08 03:19 | 41.73163 | -90.10854 | 5336 ft | 215 kts | 271° |
| 2026-05-08 03:19 | 41.73304 | -90.12860 | 4910 ft | 217 kts | 283° |
| 2026-05-08 03:20 | 41.73663 | -90.14767 | 4823 ft | 206 kts | 286° |
| 2026-05-08 03:20 | 41.74057 | -90.16575 | 4731 ft | 201 kts | 288° |
| 2026-05-08 03:20 | 41.74506 | -90.18338 | 4614 ft | 198 kts | 291° |
| 2026-05-08 03:20 | 41.75001 | -90.20053 | 4510 ft | 196 kts | 291° |
| 2026-05-08 03:21 | 41.75482 | -90.21756 | 4272 ft | 193 kts | 294° |
| 2026-05-08 03:21 | 41.75994 | -90.23282 | 4121 ft | 163 kts | 296° |
| 2026-05-08 03:21 | 41.76416 | -90.24486 | 3922 ft | 124 kts | 296° |
| 2026-05-08 03:21 | 41.76806 | -90.25432 | 3520 ft | 113 kts | 302° |
| 2026-05-08 03:22 | 41.77206 | -90.26315 | 3173 ft | 113 kts | 302° |
| 2026-05-08 03:22 | 41.77607 | -90.27166 | 2864 ft | 100 kts | 306° |
| 2026-05-08 03:22 | 41.78001 | -90.27954 | 2513 ft | 104 kts | 312° |
| 2026-05-08 03:22 | 41.78464 | -90.28716 | 2186 ft | 106 kts | 315° |
| 2026-05-08 03:23 | 41.78970 | -90.29408 | 1870 ft | 101 kts | 321° |
| 2026-05-08 03:23 | 41.79500 | -90.29991 | 1631 ft | 97 kts | 326° |
| 2026-05-08 03:23 | 41.80081 | -90.30474 | 1361 ft | 101 kts | 330° |
| 2026-05-08 03:23 | 41.80699 | -90.30942 | 1183 ft | 102 kts | 326° |
| 2026-05-08 03:24 | 41.81281 | -90.31486 | 1039 ft | 103 kts | 321° |
| 2026-05-08 03:24 | 41.81867 | -90.32046 | 854 ft | 102 kts | 322° |
| 2026-05-08 03:24 | 41.82427 | -90.32577 | 718 ft | 96 kts | 321° |
| 2026-05-08 03:24 | 41.82762 | -90.32899 | 703 ft | 19 kts | 326° |
| 2026-05-08 03:25 | 41.82831 | -90.32963 | 704 ft | 0 kts | 270° |
| 2026-05-08 03:25 | 41.82795 | -90.33013 | 700 ft | 12 kts | 210° |
| 2026-05-08 03:25 | 41.82711 | -90.33076 | 702 ft | 13 kts | 206° |
| 2026-05-08 03:25 | 41.82682 | -90.32991 | 700 ft | 13 kts | 80° |
| 2026-05-08 03:26 | 41.82673 | -90.32953 | 694 ft | 0 kts | 155° |
| 2026-05-08 03:26 | 41.82669 | -90.32951 | 695 ft | 0 kts | 156° |
| 2026-05-08 03:26 | 41.82670 | -90.32951 | 695 ft | 0 kts | 156° |
| 2026-05-08 03:27 | 41.82669 | -90.32945 | 695 ft | 5 kts | 54° |
| 2026-05-08 03:27 | 41.82674 | -90.32889 | 699 ft | 11 kts | 95° |
| 2026-05-08 03:27 | 41.82688 | -90.32828 | 699 ft | 4 kts | 2° |
| 2026-05-08 03:27 | 41.82695 | -90.32830 | 698 ft | 0 kts | 330° |
| 2026-05-08 03:28 | 41.82731 | -90.32862 | 701 ft | 23 kts | 324° |
| 2026-05-08 03:28 | 41.82972 | -90.33090 | 703 ft | 61 kts | 324° |
| 2026-05-08 03:28 | 41.83392 | -90.33498 | 730 ft | 81 kts | 317° |
| 2026-05-08 03:28 | 41.83801 | -90.34008 | 848 ft | 81 kts | 306° |
| 2026-05-08 03:29 | 41.84106 | -90.34642 | 984 ft | 78 kts | 290° |
| 2026-05-08 03:29 | 41.84292 | -90.35394 | 1000 ft | 92 kts | 282° |
| 2026-05-08 03:29 | 41.84426 | -90.36263 | 1059 ft | 95 kts | 276° |
| 2026-05-08 03:29 | 41.84466 | -90.37104 | 1163 ft | 88 kts | 268° |
| 2026-05-08 03:30 | 41.84131 | -90.38823 | 1673 ft | 101 kts | 253° |
| 2026-05-08 03:30 | 41.83554 | -90.40664 | 2323 ft | 104 kts | 252° |
| 2026-05-08 03:31 | 41.82577 | -90.42308 | 2820 ft | 127 kts | 219° |
| 2026-05-08 03:31 | 41.81568 | -90.43971 | 3531 ft | 111 kts | 281° |
| 2026-05-08 03:32 | 41.81864 | -90.44882 | 3900 ft | 105 kts | 287° |
| 2026-05-08 03:32 | 41.81845 | -90.45898 | 4197 ft | 116 kts | 269° |
| 2026-05-08 03:32 | 41.81825 | -90.47007 | 4593 ft | 120 kts | 268° |
| 2026-05-08 03:32 | 41.81766 | -90.48126 | 5017 ft | 120 kts | 266° |
| 2026-05-08 03:33 | 41.81696 | -90.49242 | 5444 ft | 120 kts | 265° |
| 2026-05-08 03:33 | 41.81621 | -90.50351 | 5875 ft | 120 kts | 264° |
| 2026-05-08 03:33 | 41.81544 | -90.51459 | 6316 ft | 119 kts | 263° |
| 2026-05-08 03:33 | 41.81466 | -90.52563 | 6740 ft | 118 kts | 264° |
| 2026-05-08 03:34 | 41.81389 | -90.53647 | 7182 ft | 116 kts | 264° |
| 2026-05-08 03:34 | 41.81314 | -90.54709 | 7633 ft | 113 kts | 265° |
| 2026-05-08 03:34 | 41.81239 | -90.55747 | 8076 ft | 113 kts | 265° |
| 2026-05-08 03:34 | 41.81162 | -90.56957 | 8023 ft | 147 kts | 266° |
| 2026-05-08 03:35 | 41.81066 | -90.58431 | 7979 ft | 168 kts | 265° |
| 2026-05-08 03:35 | 41.80951 | -90.60055 | 7962 ft | 181 kts | 265° |
| 2026-05-08 03:35 | 41.80827 | -90.61767 | 7951 ft | 189 kts | 265° |
| 2026-05-08 03:35 | 41.80698 | -90.63542 | 7946 ft | 193 kts | 265° |
| 2026-05-08 03:36 | 41.80568 | -90.65352 | 7944 ft | 196 kts | 265° |
| 2026-05-08 03:36 | 41.80435 | -90.67180 | 7946 ft | 198 kts | 265° |
| 2026-05-08 03:36 | 41.80301 | -90.69025 | 7945 ft | 199 kts | 265° |
| 2026-05-08 03:36 | 41.80166 | -90.70874 | 7945 ft | 200 kts | 265° |
| 2026-05-08 03:37 | 41.80031 | -90.72729 | 7944 ft | 200 kts | 265° |
| 2026-05-08 03:37 | 41.79894 | -90.74588 | 7944 ft | 200 kts | 265° |
| 2026-05-08 03:37 | 41.79758 | -90.76448 | 7939 ft | 201 kts | 265° |
| 2026-05-08 03:37 | 41.79620 | -90.78313 | 7939 ft | 201 kts | 265° |
| 2026-05-08 03:38 | 41.79482 | -90.80183 | 7939 ft | 202 kts | 265° |
| 2026-05-08 03:38 | 41.79346 | -90.82030 | 7939 ft | 202 kts | 265° |
| 2026-05-08 03:38 | 41.79207 | -90.83903 | 7939 ft | 202 kts | 265° |
| 2026-05-08 03:38 | 41.79068 | -90.85778 | 7940 ft | 202 kts | 265° |
| 2026-05-08 03:39 | 41.78928 | -90.87653 | 7941 ft | 202 kts | 265° |
| 2026-05-08 03:39 | 41.78788 | -90.89529 | 7942 ft | 202 kts | 265° |
| 2026-05-08 03:39 | 41.78639 | -90.91405 | 7942 ft | 203 kts | 264° |
| 2026-05-08 03:39 | 41.78494 | -90.93285 | 7944 ft | 203 kts | 265° |
| 2026-05-08 03:40 | 41.78361 | -90.95163 | 7945 ft | 202 kts | 265° |
| 2026-05-08 03:40 | 41.78224 | -90.97041 | 7945 ft | 202 kts | 265° |
| 2026-05-08 03:40 | 41.78084 | -90.98917 | 7945 ft | 202 kts | 265° |
| 2026-05-08 03:40 | 41.77942 | -91.00788 | 7944 ft | 202 kts | 265° |
| 2026-05-08 03:41 | 41.77800 | -91.02662 | 7943 ft | 202 kts | 265° |
| 2026-05-08 03:41 | 41.77657 | -91.04536 | 7943 ft | 202 kts | 265° |
| 2026-05-08 03:41 | 41.77515 | -91.06412 | 7943 ft | 202 kts | 265° |
| 2026-05-08 03:41 | 41.77372 | -91.08287 | 7946 ft | 202 kts | 265° |
| 2026-05-08 03:42 | 41.77229 | -91.10161 | 7946 ft | 202 kts | 265° |
| 2026-05-08 03:42 | 41.77085 | -91.12035 | 7946 ft | 202 kts | 265° |
| 2026-05-08 03:42 | 41.76941 | -91.13910 | 7938 ft | 202 kts | 265° |
| 2026-05-08 03:42 | 41.76798 | -91.15780 | 7939 ft | 202 kts | 265° |
| 2026-05-08 03:43 | 41.76653 | -91.17650 | 7939 ft | 202 kts | 264° |
| 2026-05-08 03:43 | 41.76509 | -91.19520 | 7938 ft | 202 kts | 264° |
| 2026-05-08 03:43 | 41.76363 | -91.21395 | 7941 ft | 203 kts | 264° |
| 2026-05-08 03:43 | 41.76218 | -91.23277 | 7941 ft | 203 kts | 264° |
| 2026-05-08 03:44 | 41.76071 | -91.25155 | 7942 ft | 203 kts | 264° |
| 2026-05-08 03:44 | 41.75925 | -91.27033 | 7945 ft | 203 kts | 264° |
| 2026-05-08 03:44 | 41.75779 | -91.28909 | 7943 ft | 203 kts | 264° |
| 2026-05-08 03:44 | 41.75632 | -91.30785 | 7944 ft | 202 kts | 264° |
| 2026-05-08 03:45 | 41.75485 | -91.32660 | 7939 ft | 203 kts | 264° |
| 2026-05-08 03:45 | 41.75337 | -91.34540 | 7939 ft | 202 kts | 264° |
| 2026-05-08 03:45 | 41.75192 | -91.36390 | 7943 ft | 202 kts | 264° |
| 2026-05-08 03:45 | 41.75044 | -91.38264 | 7941 ft | 202 kts | 264° |
| 2026-05-08 03:46 | 41.74896 | -91.40138 | 7943 ft | 202 kts | 264° |
| 2026-05-08 03:46 | 41.74747 | -91.42010 | 7941 ft | 202 kts | 264° |
| 2026-05-08 03:46 | 41.74605 | -91.43883 | 7943 ft | 202 kts | 265° |
| 2026-05-08 03:46 | 41.74464 | -91.45751 | 7942 ft | 202 kts | 264° |
| 2026-05-08 03:47 | 41.74306 | -91.47626 | 7942 ft | 202 kts | 264° |
| 2026-05-08 03:47 | 41.74152 | -91.49493 | 7943 ft | 202 kts | 264° |
| 2026-05-08 03:47 | 41.74000 | -91.51369 | 7944 ft | 202 kts | 264° |
| 2026-05-08 03:47 | 41.73850 | -91.53244 | 7935 ft | 203 kts | 264° |
| 2026-05-08 03:48 | 41.73699 | -91.55124 | 7937 ft | 204 kts | 264° |
| 2026-05-08 03:48 | 41.73547 | -91.57011 | 7937 ft | 204 kts | 264° |
| 2026-05-08 03:48 | 41.73395 | -91.58902 | 7937 ft | 204 kts | 264° |
| 2026-05-08 03:48 | 41.73241 | -91.60795 | 7938 ft | 205 kts | 264° |
| 2026-05-08 03:49 | 41.73087 | -91.62704 | 7941 ft | 207 kts | 264° |
| 2026-05-08 03:49 | 41.72931 | -91.64624 | 7943 ft | 208 kts | 264° |
| 2026-05-08 03:49 | 41.72774 | -91.66551 | 7945 ft | 209 kts | 264° |
| 2026-05-08 03:50 | 41.72495 | -91.69973 | 7945 ft | 209 kts | 264° |
| 2026-05-08 03:50 | 41.72336 | -91.71916 | 7945 ft | 210 kts | 264° |
| 2026-05-08 03:50 | 41.72176 | -91.73856 | 7933 ft | 210 kts | 264° |
| 2026-05-08 03:50 | 41.72017 | -91.75797 | 7933 ft | 210 kts | 264° |
| 2026-05-08 03:51 | 41.71857 | -91.77738 | 7930 ft | 210 kts | 264° |
| 2026-05-08 03:51 | 41.71697 | -91.79678 | 7930 ft | 210 kts | 264° |
| 2026-05-08 03:51 | 41.71536 | -91.81618 | 7932 ft | 210 kts | 264° |
| 2026-05-08 03:51 | 41.71375 | -91.83561 | 7929 ft | 210 kts | 264° |
| 2026-05-08 03:52 | 41.71214 | -91.85505 | 7927 ft | 210 kts | 264° |
| 2026-05-08 03:52 | 41.71051 | -91.87449 | 7928 ft | 210 kts | 264° |
| 2026-05-08 03:52 | 41.70891 | -91.89368 | 7921 ft | 207 kts | 264° |
| 2026-05-08 03:52 | 41.70731 | -91.91286 | 7920 ft | 208 kts | 264° |
| 2026-05-08 03:53 | 41.70569 | -91.93221 | 7919 ft | 210 kts | 264° |
| 2026-05-08 03:53 | 41.70405 | -91.95168 | 7919 ft | 211 kts | 264° |
| 2026-05-08 03:53 | 41.70241 | -91.97120 | 7921 ft | 211 kts | 264° |
| 2026-05-08 03:53 | 41.70076 | -91.99075 | 7919 ft | 212 kts | 264° |
| 2026-05-08 03:54 | 41.69911 | -92.01033 | 7922 ft | 212 kts | 264° |
| 2026-05-08 03:54 | 41.69746 | -92.02992 | 7922 ft | 212 kts | 264° |
| 2026-05-08 03:54 | 41.69577 | -92.04951 | 7924 ft | 212 kts | 264° |
| 2026-05-08 03:54 | 41.69410 | -92.06914 | 7923 ft | 212 kts | 264° |
| 2026-05-08 03:55 | 41.69246 | -92.08876 | 7920 ft | 212 kts | 264° |
| 2026-05-08 03:55 | 41.69079 | -92.10837 | 7922 ft | 212 kts | 264° |
| 2026-05-08 03:55 | 41.68910 | -92.12799 | 7921 ft | 212 kts | 264° |
| 2026-05-08 03:55 | 41.68742 | -92.14759 | 7921 ft | 212 kts | 264° |
| 2026-05-08 03:56 | 41.68573 | -92.16724 | 7921 ft | 212 kts | 264° |
| 2026-05-08 03:56 | 41.68405 | -92.18679 | 7922 ft | 212 kts | 264° |
| 2026-05-08 03:56 | 41.68236 | -92.20640 | 7922 ft | 212 kts | 264° |
| 2026-05-08 03:56 | 41.68066 | -92.22600 | 7921 ft | 212 kts | 264° |
| 2026-05-08 03:57 | 41.67899 | -92.24533 | 7925 ft | 212 kts | 264° |
| 2026-05-08 03:57 | 41.67729 | -92.26494 | 7925 ft | 212 kts | 264° |
| 2026-05-08 03:57 | 41.67558 | -92.28456 | 7926 ft | 212 kts | 264° |
| 2026-05-08 03:57 | 41.67387 | -92.30418 | 7926 ft | 213 kts | 264° |
| 2026-05-08 03:58 | 41.67216 | -92.32386 | 7925 ft | 213 kts | 264° |
| 2026-05-08 03:58 | 41.67043 | -92.34360 | 7927 ft | 214 kts | 264° |
| 2026-05-08 03:58 | 41.66870 | -92.36335 | 7928 ft | 214 kts | 264° |
| 2026-05-08 03:58 | 41.66697 | -92.38311 | 7931 ft | 214 kts | 264° |
| 2026-05-08 03:59 | 41.66523 | -92.40288 | 7930 ft | 214 kts | 264° |
| 2026-05-08 03:59 | 41.66348 | -92.42266 | 7932 ft | 214 kts | 264° |
| 2026-05-08 03:59 | 41.66174 | -92.44242 | 7933 ft | 214 kts | 264° |
| 2026-05-08 03:59 | 41.65999 | -92.46213 | 7935 ft | 214 kts | 264° |
| 2026-05-08 04:00 | 41.65824 | -92.48193 | 7936 ft | 214 kts | 264° |
| 2026-05-08 04:00 | 41.65648 | -92.50170 | 7936 ft | 214 kts | 264° |
| 2026-05-08 04:00 | 41.65472 | -92.52146 | 7938 ft | 214 kts | 264° |
| 2026-05-08 04:00 | 41.65296 | -92.54122 | 7939 ft | 214 kts | 264° |
| 2026-05-08 04:01 | 41.65120 | -92.56093 | 7943 ft | 214 kts | 264° |
| 2026-05-08 04:01 | 41.64942 | -92.58073 | 7945 ft | 214 kts | 264° |
| 2026-05-08 04:01 | 41.64765 | -92.60049 | 7947 ft | 214 kts | 264° |
| 2026-05-08 04:01 | 41.64587 | -92.62025 | 7947 ft | 214 kts | 264° |
| 2026-05-08 04:02 | 41.64409 | -92.64002 | 7948 ft | 214 kts | 264° |
| 2026-05-08 04:02 | 41.64234 | -92.65953 | 7950 ft | 214 kts | 264° |
| 2026-05-08 04:02 | 41.64052 | -92.67956 | 7944 ft | 215 kts | 265° |
| 2026-05-08 04:02 | 41.63869 | -92.69983 | 7677 ft | 225 kts | 265° |
| 2026-05-08 04:03 | 41.63681 | -92.72060 | 7398 ft | 231 kts | 265° |
| 2026-05-08 04:03 | 41.63286 | -92.76381 | 6848 ft | 236 kts | 264° |
| 2026-05-08 04:03 | 41.63087 | -92.78546 | 6576 ft | 234 kts | 264° |
| 2026-05-08 04:04 | 41.62890 | -92.80698 | 6305 ft | 233 kts | 264° |
| 2026-05-08 04:04 | 41.62694 | -92.82841 | 5993 ft | 232 kts | 264° |
| 2026-05-08 04:04 | 41.62496 | -92.84988 | 5701 ft | 233 kts | 264° |
| 2026-05-08 04:04 | 41.62298 | -92.87143 | 5415 ft | 234 kts | 264° |
| 2026-05-08 04:05 | 41.62098 | -92.89309 | 5137 ft | 236 kts | 264° |
| 2026-05-08 04:05 | 41.61901 | -92.91420 | 4849 ft | 223 kts | 264° |
| 2026-05-08 04:05 | 41.61891 | -92.93379 | 4709 ft | 199 kts | 278° |
| 2026-05-08 04:05 | 41.62202 | -92.95169 | 4226 ft | 191 kts | 291° |
| 2026-05-08 04:06 | 41.62770 | -92.96657 | 3642 ft | 174 kts | 304° |
| 2026-05-08 04:06 | 41.63434 | -92.97960 | 3145 ft | 159 kts | 313° |
| 2026-05-08 04:06 | 41.64171 | -92.98857 | 2756 ft | 132 kts | 328° |
| 2026-05-08 04:06 | 41.64872 | -92.99471 | 2158 ft | 114 kts | 332° |
| 2026-05-08 04:07 | 41.65506 | -93.00090 | 1504 ft | 113 kts | 326° |
| 2026-05-08 04:07 | 41.66104 | -93.00732 | 1086 ft | 102 kts | 322° |
| 2026-05-08 04:07 | 41.66659 | -93.01336 | 1001 ft | 104 kts | 323° |
| 2026-05-08 04:07 | 41.67195 | -93.01896 | 991 ft | 96 kts | 321° |
| 2026-05-08 04:08 | 41.67750 | -93.02538 | 1133 ft | 112 kts | 316° |
| 2026-05-08 04:08 | 41.68256 | -93.03325 | 1487 ft | 112 kts | 313° |
| 2026-05-08 04:08 | 41.68655 | -93.04238 | 1745 ft | 127 kts | 276° |
| 2026-05-08 04:08 | 41.68250 | -93.05463 | 1596 ft | 167 kts | 235° |
| 2026-05-08 04:09 | 41.67762 | -93.06897 | 1650 ft | 165 kts | 258° |
| 2026-05-08 04:09 | 41.67556 | -93.08517 | 1658 ft | 188 kts | 264° |
| 2026-05-08 04:09 | 41.67379 | -93.10342 | 1609 ft | 205 kts | 263° |
| 2026-05-08 04:09 | 41.67144 | -93.12223 | 1822 ft | 203 kts | 262° |
| 2026-05-08 04:10 | 41.66908 | -93.14061 | 2143 ft | 199 kts | 263° |
| 2026-05-08 04:10 | 41.66692 | -93.15874 | 2462 ft | 196 kts | 263° |
| 2026-05-08 04:10 | 41.66476 | -93.17667 | 2790 ft | 194 kts | 263° |
| 2026-05-08 04:10 | 41.66262 | -93.19446 | 3125 ft | 193 kts | 263° |
| 2026-05-08 04:11 | 41.66048 | -93.21215 | 3450 ft | 192 kts | 263° |
| 2026-05-08 04:11 | 41.65837 | -93.22955 | 3774 ft | 192 kts | 263° |
| 2026-05-08 04:11 | 41.65625 | -93.24712 | 4104 ft | 191 kts | 263° |
| 2026-05-08 04:11 | 41.65412 | -93.26465 | 4437 ft | 191 kts | 263° |
| 2026-05-08 04:12 | 41.65199 | -93.28214 | 4768 ft | 190 kts | 263° |
| 2026-05-08 04:12 | 41.64988 | -93.29956 | 5102 ft | 189 kts | 263° |
| 2026-05-08 04:12 | 41.64777 | -93.31688 | 5440 ft | 187 kts | 263° |
| 2026-05-08 04:12 | 41.64568 | -93.33396 | 5782 ft | 185 kts | 263° |
| 2026-05-08 04:13 | 41.64362 | -93.35086 | 6132 ft | 183 kts | 263° |
| 2026-05-08 04:13 | 41.64158 | -93.36753 | 6471 ft | 181 kts | 263° |
| 2026-05-08 04:13 | 41.63955 | -93.38407 | 6794 ft | 180 kts | 263° |
| 2026-05-08 04:13 | 41.63753 | -93.40054 | 7114 ft | 179 kts | 263° |
| 2026-05-08 04:14 | 41.63552 | -93.41699 | 7438 ft | 179 kts | 264° |
| 2026-05-08 04:14 | 41.63349 | -93.43344 | 7760 ft | 179 kts | 264° |
| 2026-05-08 04:14 | 41.63147 | -93.44990 | 8009 ft | 184 kts | 264° |
| 2026-05-08 04:14 | 41.62932 | -93.46757 | 7974 ft | 199 kts | 264° |
| 2026-05-08 04:15 | 41.62702 | -93.48622 | 7974 ft | 207 kts | 264° |
| 2026-05-08 04:15 | 41.62228 | -93.50423 | 7942 ft | 205 kts | 244° |
| 2026-05-08 04:15 | 41.61445 | -93.51934 | 7793 ft | 189 kts | 235° |
| 2026-05-08 04:15 | 41.60632 | -93.53162 | 7428 ft | 165 kts | 233° |
| 2026-05-08 04:16 | 41.59877 | -93.54260 | 6922 ft | 152 kts | 233° |
| 2026-05-08 04:16 | 41.59218 | -93.55256 | 6498 ft | 137 kts | 234° |
| 2026-05-08 04:16 | 41.58620 | -93.56211 | 5992 ft | 130 kts | 237° |
| 2026-05-08 04:16 | 41.58122 | -93.57130 | 5407 ft | 117 kts | 238° |
| 2026-05-08 04:17 | 41.57668 | -93.58029 | 4869 ft | 118 kts | 239° |
| 2026-05-08 04:17 | 41.57219 | -93.58940 | 4316 ft | 119 kts | 238° |
| 2026-05-08 04:17 | 41.56757 | -93.59861 | 3789 ft | 119 kts | 237° |
| 2026-05-08 04:17 | 41.56262 | -93.60730 | 3306 ft | 118 kts | 232° |
| 2026-05-08 04:18 | 41.55744 | -93.61591 | 2775 ft | 120 kts | 230° |
| 2026-05-08 04:18 | 41.55210 | -93.62449 | 2282 ft | 121 kts | 233° |
| 2026-05-08 04:18 | 41.54726 | -93.63358 | 1820 ft | 119 kts | 237° |
| 2026-05-08 04:18 | 41.54266 | -93.64245 | 1373 ft | 113 kts | 231° |
| 2026-05-08 04:19 | 41.53800 | -93.65055 | 951 ft | 106 kts | 232° |
| 2026-05-08 04:19 | 41.53422 | -93.65751 | 914 ft | 84 kts | 231° |
| 2026-05-08 04:19 | 41.53050 | -93.66431 | 978 ft | 99 kts | 231° |
| 2026-05-08 04:19 | 41.52613 | -93.67165 | 1235 ft | 100 kts | 230° |
| 2026-05-08 04:20 | 41.52123 | -93.67878 | 1454 ft | 117 kts | 213° |
| 2026-05-08 04:20 | 41.51345 | -93.68303 | 1746 ft | 129 kts | 187° |
| 2026-05-08 04:20 | 41.50540 | -93.69047 | 1729 ft | 167 kts | 240° |
| 2026-05-08 04:20 | 41.50085 | -93.70422 | 2243 ft | 155 kts | 258° |
| 2026-05-08 04:21 | 41.50019 | -93.71801 | 2772 ft | 146 kts | 271° |
| 2026-05-08 04:21 | 41.49983 | -93.73129 | 3275 ft | 142 kts | 270° |
| 2026-05-08 04:21 | 41.49909 | -93.74429 | 3762 ft | 139 kts | 268° |
| 2026-05-08 04:21 | 41.49816 | -93.75698 | 4247 ft | 136 kts | 267° |
| 2026-05-08 04:22 | 41.49718 | -93.76934 | 4737 ft | 133 kts | 268° |
| 2026-05-08 04:22 | 41.49619 | -93.78144 | 5225 ft | 129 kts | 267° |
| 2026-05-08 04:22 | 41.49523 | -93.79306 | 5711 ft | 126 kts | 266° |
| 2026-05-08 04:22 | 41.49430 | -93.80447 | 6225 ft | 122 kts | 265° |
| 2026-05-08 04:23 | 41.49339 | -93.81556 | 6691 ft | 119 kts | 266° |
| 2026-05-08 04:23 | 41.49248 | -93.82650 | 7138 ft | 118 kts | 267° |
| 2026-05-08 04:23 | 41.49157 | -93.83738 | 7589 ft | 118 kts | 267° |
| 2026-05-08 04:23 | 41.49067 | -93.84818 | 8041 ft | 117 kts | 267° |
| 2026-05-08 04:24 | 41.48977 | -93.85896 | 8497 ft | 117 kts | 268° |
| 2026-05-08 04:24 | 41.48889 | -93.86972 | 8951 ft | 117 kts | 267° |
| 2026-05-08 04:24 | 41.48800 | -93.88046 | 9413 ft | 116 kts | 268° |
| 2026-05-08 04:24 | 41.48709 | -93.89119 | 9872 ft | 117 kts | 268° |
| 2026-05-08 04:25 | 41.48648 | -93.89844 | 10151 ft | 116 kts | 268° |
| 2026-05-08 04:25 | 41.48561 | -93.90914 | 10576 ft | 116 kts | 268° |
| 2026-05-08 04:25 | 41.48474 | -93.91967 | 10996 ft | 116 kts | 269° |
| 2026-05-08 04:25 | 41.48384 | -93.93031 | 11426 ft | 115 kts | 269° |
| 2026-05-08 04:26 | 41.48295 | -93.94092 | 11857 ft | 115 kts | 270° |
| 2026-05-08 04:26 | 41.48207 | -93.95172 | 12154 ft | 127 kts | 270° |
| 2026-05-08 04:26 | 41.48107 | -93.96502 | 12077 ft | 159 kts | 269° |
| 2026-05-08 04:26 | 41.47980 | -93.98067 | 12064 ft | 179 kts | 268° |
| 2026-05-08 04:27 | 41.47839 | -93.99776 | 12059 ft | 191 kts | 268° |
| 2026-05-08 04:27 | 41.47690 | -94.01579 | 12050 ft | 200 kts | 268° |
| 2026-05-08 04:27 | 41.47534 | -94.03444 | 12048 ft | 205 kts | 268° |
| 2026-05-08 04:27 | 41.47373 | -94.05352 | 12043 ft | 208 kts | 268° |
| 2026-05-08 04:28 | 41.47210 | -94.07278 | 12049 ft | 210 kts | 268° |
| 2026-05-08 04:28 | 41.47045 | -94.09218 | 12047 ft | 211 kts | 268° |
| 2026-05-08 04:28 | 41.46880 | -94.11170 | 12047 ft | 212 kts | 268° |
| 2026-05-08 04:28 | 41.46713 | -94.13125 | 12044 ft | 212 kts | 268° |
| 2026-05-08 04:29 | 41.46546 | -94.15087 | 12049 ft | 213 kts | 268° |
| 2026-05-08 04:29 | 41.46380 | -94.17026 | 12038 ft | 213 kts | 268° |
| 2026-05-08 04:29 | 41.46212 | -94.18989 | 12050 ft | 213 kts | 268° |
| 2026-05-08 04:29 | 41.46044 | -94.20953 | 12044 ft | 213 kts | 268° |
| 2026-05-08 04:30 | 41.45875 | -94.22912 | 12039 ft | 213 kts | 268° |
| 2026-05-08 04:30 | 41.45707 | -94.24869 | 12045 ft | 212 kts | 268° |
| 2026-05-08 04:30 | 41.45538 | -94.26826 | 12045 ft | 212 kts | 268° |
| 2026-05-08 04:30 | 41.45369 | -94.28781 | 12047 ft | 212 kts | 268° |
| 2026-05-08 04:31 | 41.45200 | -94.30737 | 12039 ft | 212 kts | 268° |
| 2026-05-08 04:31 | 41.45030 | -94.32692 | 12044 ft | 212 kts | 268° |
| 2026-05-08 04:31 | 41.44860 | -94.34646 | 12044 ft | 212 kts | 268° |
| 2026-05-08 04:31 | 41.44690 | -94.36600 | 12044 ft | 212 kts | 268° |
| 2026-05-08 04:32 | 41.44518 | -94.38557 | 12044 ft | 212 kts | 268° |
| 2026-05-08 04:32 | 41.44348 | -94.40509 | 12039 ft | 212 kts | 268° |
| 2026-05-08 04:32 | 41.44177 | -94.42460 | 12040 ft | 212 kts | 268° |
| 2026-05-08 04:32 | 41.44005 | -94.44416 | 12034 ft | 212 kts | 268° |
| 2026-05-08 04:33 | 41.43835 | -94.46346 | 12047 ft | 212 kts | 268° |
| 2026-05-08 04:33 | 41.43663 | -94.48299 | 12047 ft | 212 kts | 268° |
| 2026-05-08 04:33 | 41.43497 | -94.50251 | 12047 ft | 212 kts | 268° |
| 2026-05-08 04:33 | 41.43320 | -94.52200 | 12047 ft | 212 kts | 267° |
| 2026-05-08 04:34 | 41.43139 | -94.54148 | 12043 ft | 212 kts | 268° |
| 2026-05-08 04:34 | 41.42979 | -94.56097 | 12048 ft | 210 kts | 275° |
| 2026-05-08 04:34 | 41.42853 | -94.58037 | 12020 ft | 210 kts | 270° |
| 2026-05-08 04:34 | 41.42659 | -94.59969 | 12032 ft | 209 kts | 270° |
| 2026-05-08 04:35 | 41.42476 | -94.61890 | 12033 ft | 209 kts | 270° |
| 2026-05-08 04:35 | 41.42306 | -94.63807 | 12027 ft | 208 kts | 270° |
| 2026-05-08 04:35 | 41.42137 | -94.65734 | 11904 ft | 213 kts | 271° |
| 2026-05-08 04:35 | 41.41962 | -94.67743 | 11532 ft | 224 kts | 270° |
| 2026-05-08 04:36 | 41.41775 | -94.69835 | 11166 ft | 230 kts | 270° |
| 2026-05-08 04:36 | 41.41585 | -94.71938 | 10807 ft | 233 kts | 270° |
| 2026-05-08 04:36 | 41.41389 | -94.74095 | 10450 ft | 235 kts | 270° |
| 2026-05-08 04:36 | 41.41193 | -94.76256 | 10100 ft | 235 kts | 269° |
| 2026-05-08 04:37 | 41.40997 | -94.78420 | 9748 ft | 235 kts | 269° |
| 2026-05-08 04:37 | 41.40800 | -94.80584 | 9367 ft | 235 kts | 269° |
| 2026-05-08 04:37 | 41.40602 | -94.82747 | 8995 ft | 235 kts | 269° |
| 2026-05-08 04:37 | 41.40404 | -94.84862 | 8607 ft | 224 kts | 268° |
| 2026-05-08 04:38 | 41.40214 | -94.86872 | 8229 ft | 214 kts | 268° |
| 2026-05-08 04:38 | 41.40037 | -94.88797 | 8150 ft | 204 kts | 268° |
| 2026-05-08 04:38 | 41.39866 | -94.90671 | 8157 ft | 204 kts | 268° |
| 2026-05-08 04:38 | 41.39694 | -94.92544 | 8159 ft | 204 kts | 268° |
| 2026-05-08 04:39 | 41.39521 | -94.94417 | 8159 ft | 203 kts | 269° |
| 2026-05-08 04:39 | 41.39348 | -94.96288 | 8160 ft | 203 kts | 269° |
| 2026-05-08 04:39 | 41.39174 | -94.98165 | 8158 ft | 204 kts | 269° |
| 2026-05-08 04:39 | 41.39001 | -95.00033 | 8156 ft | 204 kts | 269° |
| 2026-05-08 04:40 | 41.38828 | -95.01886 | 8156 ft | 204 kts | 269° |
| 2026-05-08 04:40 | 41.38654 | -95.03766 | 8159 ft | 204 kts | 269° |
| 2026-05-08 04:40 | 41.38479 | -95.05645 | 8158 ft | 204 kts | 269° |
| 2026-05-08 04:40 | 41.38302 | -95.07524 | 8156 ft | 204 kts | 269° |
| 2026-05-08 04:41 | 41.38127 | -95.09400 | 8158 ft | 204 kts | 269° |
| 2026-05-08 04:41 | 41.37950 | -95.11280 | 8157 ft | 204 kts | 269° |
| 2026-05-08 04:41 | 41.37774 | -95.13155 | 8157 ft | 204 kts | 269° |
| 2026-05-08 04:41 | 41.37597 | -95.15036 | 8158 ft | 204 kts | 269° |
| 2026-05-08 04:42 | 41.37420 | -95.16917 | 8158 ft | 204 kts | 269° |
| 2026-05-08 04:42 | 41.37242 | -95.18794 | 8156 ft | 204 kts | 268° |
| 2026-05-08 04:42 | 41.37065 | -95.20671 | 8157 ft | 205 kts | 268° |
| 2026-05-08 04:42 | 41.36887 | -95.22550 | 8158 ft | 205 kts | 268° |
| 2026-05-08 04:43 | 41.36711 | -95.24401 | 8154 ft | 205 kts | 268° |
| 2026-05-08 04:43 | 41.36532 | -95.26279 | 8156 ft | 204 kts | 268° |
| 2026-05-08 04:43 | 41.36353 | -95.28160 | 8157 ft | 204 kts | 268° |
| 2026-05-08 04:43 | 41.36174 | -95.30038 | 8155 ft | 205 kts | 268° |
| 2026-05-08 04:44 | 41.35994 | -95.31917 | 8154 ft | 204 kts | 268° |
| 2026-05-08 04:44 | 41.35814 | -95.33791 | 8157 ft | 203 kts | 270° |
| 2026-05-08 04:44 | 41.35635 | -95.35658 | 8154 ft | 202 kts | 269° |
| 2026-05-08 04:44 | 41.35456 | -95.37513 | 8152 ft | 202 kts | 269° |
| 2026-05-08 04:45 | 41.35278 | -95.39364 | 8154 ft | 201 kts | 270° |
| 2026-05-08 04:45 | 41.35100 | -95.41216 | 8154 ft | 201 kts | 269° |
| 2026-05-08 04:45 | 41.34921 | -95.43062 | 8152 ft | 201 kts | 269° |
| 2026-05-08 04:45 | 41.34745 | -95.44882 | 8150 ft | 201 kts | 269° |
| 2026-05-08 04:46 | 41.34566 | -95.46725 | 8154 ft | 201 kts | 269° |
| 2026-05-08 04:46 | 41.34387 | -95.48570 | 8151 ft | 201 kts | 269° |
| 2026-05-08 04:46 | 41.34208 | -95.50410 | 8151 ft | 201 kts | 269° |
| 2026-05-08 04:46 | 41.34029 | -95.52248 | 8147 ft | 200 kts | 269° |
| 2026-05-08 04:47 | 41.33849 | -95.54090 | 8153 ft | 200 kts | 269° |
| 2026-05-08 04:47 | 41.33671 | -95.55926 | 8154 ft | 200 kts | 269° |
| 2026-05-08 04:47 | 41.33490 | -95.57769 | 8044 ft | 204 kts | 269° |
| 2026-05-08 04:47 | 41.33305 | -95.59680 | 7833 ft | 210 kts | 269° |
| 2026-05-08 04:48 | 41.33115 | -95.61629 | 7630 ft | 213 kts | 269° |
| 2026-05-08 04:48 | 41.32924 | -95.63571 | 7443 ft | 214 kts | 269° |
| 2026-05-08 04:48 | 41.32729 | -95.65526 | 7236 ft | 212 kts | 269° |
| 2026-05-08 04:48 | 41.32537 | -95.67445 | 7031 ft | 206 kts | 269° |
| 2026-05-08 04:49 | 41.32351 | -95.69304 | 6814 ft | 200 kts | 269° |
| 2026-05-08 04:49 | 41.32169 | -95.71119 | 6587 ft | 191 kts | 268° |
| 2026-05-08 04:49 | 41.31996 | -95.72826 | 6357 ft | 182 kts | 268° |
| 2026-05-08 04:49 | 41.31760 | -95.74451 | 6033 ft | 182 kts | 254° |
| 2026-05-08 04:50 | 41.31182 | -95.75931 | 5834 ft | 175 kts | 246° |
| 2026-05-08 04:50 | 41.30480 | -95.77112 | 5615 ft | 146 kts | 246° |
| 2026-05-08 04:50 | 41.29922 | -95.78151 | 5206 ft | 139 kts | 239° |
| 2026-05-08 04:50 | 41.29340 | -95.79009 | 4919 ft | 111 kts | 235° |
| 2026-05-08 04:51 | 41.28785 | -95.79690 | 4302 ft | 108 kts | 230° |
| 2026-05-08 04:51 | 41.28246 | -95.80332 | 3876 ft | 102 kts | 229° |
| 2026-05-08 04:51 | 41.27738 | -95.81022 | 3498 ft | 108 kts | 236° |
| 2026-05-08 04:51 | 41.27271 | -95.81815 | 3277 ft | 107 kts | 244° |
| 2026-05-08 04:52 | 41.26947 | -95.82701 | 3082 ft | 106 kts | 257° |
| 2026-05-08 04:52 | 41.26800 | -95.83631 | 2914 ft | 102 kts | 270° |
| 2026-05-08 04:52 | 41.26788 | -95.84630 | 2589 ft | 113 kts | 283° |
| 2026-05-08 04:52 | 41.26994 | -95.85647 | 2373 ft | 115 kts | 303° |
| 2026-05-08 04:53 | 41.27475 | -95.86473 | 1999 ft | 113 kts | 330° |
| 2026-05-08 04:53 | 41.28095 | -95.86992 | 1667 ft | 98 kts | 334° |
| 2026-05-08 04:53 | 41.28655 | -95.87492 | 1363 ft | 98 kts | 327° |
| 2026-05-08 04:53 | 41.29229 | -95.88026 | 1096 ft | 102 kts | 326° |
| 2026-05-08 04:54 | 41.29760 | -95.88517 | 987 ft | 79 kts | 325° |
| 2026-05-08 04:54 | 41.30122 | -95.88859 | 984 ft | 48 kts | 312° |
| 2026-05-08 04:54 | 41.30373 | -95.89099 | 981 ft | 42 kts | 326° |
| 2026-05-08 04:54 | 41.30354 | -95.89335 | 984 ft | 24 kts | 259° |